Rorichmoor — V2BV7 — position and weather

sailwx.info

Track history (hours):
 
Tides and Currents Weather Stations Pressure Air Temp Water Temp Dewpoint Dewpoint Depression Visibility Wind Speed Wind Dir Waves Ship Positions

Rorichmoor

Last reported at 2016-Feb-06 22:19 UTC. Time now 2016-Feb-10 17:40 UTC.
Position N 43°04' E 005°07'.

Length 80 m; draft 4.4 m.

Type: Cargo ship. MMSI: 304938000.

Date/timePositionNaut miles runAvg speedWind from/ knotsBaromVisibWave heightAir tempDewpointWater temp
2016-Feb-06 22:19N 43°04' E 005°07'5 6.9
2016-Feb-06 21:33N 43°08' E 005°03'7 6.5
2016-Feb-06 20:33N 43°14' E 004°59'10 6.7
2016-Feb-06 19:04N 43°24' E 004°55'4 7.8
2016-Feb-06 18:33N 43°23' E 004°50'2 2.4
2016-Feb-06 17:33N 43°24' E 004°47'19 6.4
2016-Feb-06 14:33N 43°42' E 004°38'0 0.0
2016-Feb-06 12:18N 43°42' E 004°38'0 0.0
2016-Feb-06 10:30N 43°42' E 004°38'0 0.0
2016-Feb-06 09:33N 43°42' E 004°38'0 0.0
2016-Feb-06 08:33N 43°42' E 004°38'11 1.0
2016-Feb-05 21:21N 43°31' E 004°44'6 7.3
2016-Feb-05 20:33N 43°26' E 004°44'4 4.2
2016-Feb-05 19:34N 43°23' E 004°49'6 5.7
2016-Feb-05 18:33N 43°23' E 004°56'8 7.8
2016-Feb-05 17:33N 43°16' E 005°01'8 8.5
2016-Feb-05 16:33N 43°09' E 005°08'  
2016-Jan-29 23:21N 42°60' E 005°26'7 9.2
2016-Jan-29 22:33N 43°04' E 005°18'9 9.3
2016-Jan-29 21:33N 43°09' E 005°07'9 8.9
2016-Jan-29 20:33N 43°15' E 004°59'9 8.9
2016-Jan-29 19:33N 43°24' E 004°54'4 4.2
2016-Jan-29 18:33N 43°23' E 004°49'6 5.2
2016-Jan-29 17:29N 43°28' E 004°45'10 9.2
2016-Jan-29 16:22N 43°37' E 004°39'2 0.1
2016-Jan-28 15:15N 43°35' E 004°40'6 8.1
2016-Jan-28 14:33N 43°30' E 004°44'8 7.6
2016-Jan-28 13:33N 43°23' E 004°48'2 2.4
2016-Jan-28 12:33N 43°23' E 004°52'6 6.2
2016-Jan-28 11:33N 43°20' E 004°59'9 9.0
2016-Jan-28 10:33N 43°12' E 005°03'10 9.6
2016-Jan-28 09:33N 43°02' E 005°03'  
Track history (hours):
 
Tides and Currents Weather Stations Pressure Air Temp Water Temp Dewpoint Dewpoint Depression Visibility Wind Speed Wind Dir Waves Ship Positions

Rorichmoor

Last reported at 2016-Feb-06 22:19 UTC. Time now 2016-Feb-10 17:40 UTC.
Position N 43°04' E 005°07'.

Length 80 m; draft 4.4 m.

Type: Cargo ship. MMSI: 304938000.

Date/timePositionNaut miles runAvg speedWind from/ knotsBaromVisibWave heightAir tempDewpointWater temp
2016-Feb-06 22:19N 43°04' E 005°07'5 6.9
2016-Feb-06 21:33N 43°08' E 005°03'7 6.5
2016-Feb-06 20:33N 43°14' E 004°59'10 6.7
2016-Feb-06 19:04N 43°24' E 004°55'4 7.8
2016-Feb-06 18:33N 43°23' E 004°50'2 2.4
2016-Feb-06 17:33N 43°24' E 004°47'19 6.4
2016-Feb-06 14:33N 43°42' E 004°38'0 0.0
2016-Feb-06 12:18N 43°42' E 004°38'0 0.0
2016-Feb-06 10:30N 43°42' E 004°38'0 0.0
2016-Feb-06 09:33N 43°42' E 004°38'0 0.0
2016-Feb-06 08:33N 43°42' E 004°38'11 1.0
2016-Feb-05 21:21N 43°31' E 004°44'6 7.3
2016-Feb-05 20:33N 43°26' E 004°44'4 4.2
2016-Feb-05 19:34N 43°23' E 004°49'6 5.7
2016-Feb-05 18:33N 43°23' E 004°56'8 7.8
2016-Feb-05 17:33N 43°16' E 005°01'8 8.5
2016-Feb-05 16:33N 43°09' E 005°08'  
2016-Jan-29 23:21N 42°60' E 005°26'7 9.2
2016-Jan-29 22:33N 43°04' E 005°18'9 9.3
2016-Jan-29 21:33N 43°09' E 005°07'9 8.9
2016-Jan-29 20:33N 43°15' E 004°59'9 8.9
2016-Jan-29 19:33N 43°24' E 004°54'4 4.2
2016-Jan-29 18:33N 43°23' E 004°49'6 5.2
2016-Jan-29 17:29N 43°28' E 004°45'10 9.2
2016-Jan-29 16:22N 43°37' E 004°39'2 0.1
2016-Jan-28 15:15N 43°35' E 004°40'6 8.1
2016-Jan-28 14:33N 43°30' E 004°44'8 7.6
2016-Jan-28 13:33N 43°23' E 004°48'2 2.4
2016-Jan-28 12:33N 43°23' E 004°52'6 6.2
2016-Jan-28 11:33N 43°20' E 004°59'9 9.0
2016-Jan-28 10:33N 43°12' E 005°03'10 9.6
2016-Jan-28 09:33N 43°02' E 005°03'  

Dump ship's entire track history